Terminal Aerodrome Forecast
Issued by NWS

Home | Current Version | Previous Version | Graphics & Text | Print | Product List | Glossary On
Versions: 1 2 3 4 5 6 7 8 9 10 11 12 13 14 15 16 17 18 19 20 21
041
FTUS43 KMPX 171722
TAFRWF
TAF
KRWF 171722Z 1718/1818 29011KT P6SM SCT250
     FM180000 28006KT P6SM SKC
     FM180700 14007KT P6SM SCT050 BKN100
     FM181200 15017G23KT P6SM OVC050=

USA.gov is the U.S. government's official web portal to all federal, state and local government web resources and services.